Time;durP1;ratioP1;P1;durP2;ratioP2;P2;SDS_P1;SDS_P2;PMS_P1;PMS_P2;Temp;Humidity;BMP_temperature;BMP_pressure;BME280_temperature;BME280_humidity;BME280_pressure;Samples;Min_cycle;Max_cycle;Signal;HPM_P1;HPM_P2
2022/04/24 00:01:53;;;;;;;13.37;11.97;;;9.70;72.30;;;8.39;70.40;96198.25;5045868;28;20458;-82
2022/04/24 00:04:20;;;;;;;12.90;11.60;;;9.70;72.30;;;8.57;70.75;96193.69;5045165;28;20645;-83
2022/04/24 00:06:47;;;;;;;12.50;11.40;;;9.80;72.40;;;8.23;70.47;96132.66;5048033;28;20450;-83
2022/04/24 00:09:14;;;;;;;12.70;11.40;;;9.80;72.40;;;8.57;70.45;96180.22;5045903;28;20541;-83
2022/04/24 00:11:43;;;;;;;12.50;11.30;;;9.80;72.30;;;8.54;70.42;96161.91;5042091;28;20451;-84
2022/04/24 00:14:10;;;;;;;11.47;10.37;;;9.80;72.30;;;8.54;70.14;96143.06;5048218;28;20758;-83
2022/04/24 00:16:38;;;;;;;11.93;10.73;;;9.80;72.20;;;8.60;70.28;96155.53;5057796;28;20571;-84
2022/04/24 00:19:05;;;;;;;11.60;10.50;;;9.80;72.20;;;8.52;70.22;96150.56;5044286;28;20484;-83
2022/04/24 00:21:33;;;;;;;11.93;10.80;;;9.80;72.30;;;8.55;70.49;96167.03;5065112;28;20519;-82
2022/04/24 00:24:00;;;;;;;11.50;10.40;;;9.80;72.40;;;8.58;69.95;96171.13;5050852;28;20473;-82
2022/04/24 00:26:28;;;;;;;11.67;10.57;;;9.80;72.30;;;8.52;69.96;96164.03;5055354;28;20457;-82
2022/04/24 00:28:56;;;;;;;12.00;10.80;;;9.80;72.30;;;8.49;70.81;96171.50;5047239;28;20535;-82
2022/04/24 00:31:24;;;;;;;12.30;10.97;;;9.70;72.30;;;8.53;70.79;96168.34;5065418;28;20511;-82
2022/04/24 00:33:51;;;;;;;12.43;11.23;;;9.70;72.40;;;8.43;70.88;96155.53;5046782;28;20485;-84
2022/04/24 00:36:18;;;;;;;12.83;11.63;;;9.70;72.50;;;8.48;70.56;96160.97;5038394;28;20556;-82
2022/04/24 00:38:45;;;;;;;12.80;11.50;;;9.70;72.50;;;8.41;71.18;96150.38;5027097;28;20882;-82
2022/04/24 00:41:12;;;;;;;12.27;10.30;;;9.70;72.80;;;8.39;71.39;96149.00;5027074;28;20513;-82
2022/04/24 00:43:39;;;;;;;13.40;12.00;;;9.60;72.90;;;8.28;71.96;96129.22;5024647;28;20462;-83
2022/04/24 00:46:15;;;;;;;11.70;10.57;;;9.60;73.10;;;8.30;71.41;96127.09;5019393;28;20487;-82
2022/04/24 00:48:44;;;;;;;12.40;11.30;;;9.60;73.20;;;8.11;71.40;96097.75;5023632;28;20564;-82
2022/04/24 00:51:12;;;;;;;13.20;12.00;;;9.60;73.20;;;8.23;71.47;96121.88;5024091;28;20462;-82
2022/04/24 00:53:39;;;;;;;12.90;11.70;;;9.50;73.30;;;8.31;71.65;96136.81;5024750;28;20539;-83
2022/04/24 00:56:06;;;;;;;14.17;12.67;;;9.50;73.50;;;8.30;71.87;96127.09;5043048;28;20882;-83
2022/04/24 00:58:34;;;;;;;13.77;12.27;;;9.50;73.60;;;7.94;71.84;96077.06;5028798;28;20564;-82
2022/04/24 01:01:01;;;;;;;14.20;12.73;;;9.50;73.80;;;8.25;72.18;96129.69;5027682;28;20461;-82
2022/04/24 01:03:30;;;;;;;12.90;11.67;;;9.50;74.00;;;8.22;72.71;96121.06;5022952;28;20548;-82
2022/04/24 01:05:57;;;;;;;13.63;12.23;;;9.50;74.30;;;7.55;72.51;96014.38;5020183;28;20473;-83
2022/04/24 01:08:24;;;;;;;14.80;13.20;;;9.50;74.40;;;8.18;72.84;96117.25;5043642;28;21074;-83
2022/04/24 01:10:51;;;;;;;13.43;12.17;;;9.40;74.60;;;8.21;73.08;96124.00;5023620;28;20458;-82
2022/04/24 01:13:19;;;;;;;15.03;13.13;;;9.40;74.80;;;8.12;73.10;96120.94;5029371;28;20500;-81
2022/04/24 01:15:46;;;;;;;15.87;14.30;;;9.40;75.10;;;8.17;73.66;96114.78;5021677;28;20540;-83
2022/04/24 01:18:14;;;;;;;15.83;14.33;;;9.40;75.40;;;7.93;73.82;96090.78;5025677;28;20461;-80
2022/04/24 01:20:42;;;;;;;15.30;13.67;;;9.40;75.60;;;8.08;73.82;96114.41;5025821;28;20576;-80
2022/04/24 01:23:09;;;;;;;14.10;12.80;;;9.40;75.80;;;8.04;73.75;96114.09;5029153;28;20454;-82
2022/04/24 01:25:37;;;;;;;16.00;14.40;;;9.30;76.30;;;7.94;74.72;96120.09;5031075;28;20446;-82
2022/04/24 01:28:09;;;;;;;15.87;13.30;;;9.20;76.40;;;7.91;74.78;96119.81;5022666;28;20637;-82
2022/04/24 01:30:36;;;;;;;15.67;14.07;;;9.10;77.00;;;7.90;75.12;96128.94;5031406;28;20462;-82
2022/04/24 01:33:03;;;;;;;14.67;13.17;;;9.10;77.50;;;7.80;75.61;96125.00;5038151;28;20849;-83
2022/04/24 01:35:31;;;;;;;15.23;13.73;;;9.10;77.70;;;7.81;75.38;96117.78;5028383;28;20450;-80
2022/04/24 01:37:59;;;;;;;17.50;15.80;;;9.10;77.90;;;7.87;75.39;96132.91;5028451;28;20568;-81
2022/04/24 01:40:26;;;;;;;16.60;14.90;;;9.10;78.40;;;7.81;75.82;96128.53;5028657;28;20531;-80
2022/04/24 01:42:53;;;;;;;18.17;16.27;;;9.10;78.60;;;7.71;76.04;96099.56;5026241;28;20482;-81
2022/04/24 01:45:20;;;;;;;19.10;17.10;;;9.00;79.00;;;7.78;76.16;96111.00;5028275;28;20491;-80
2022/04/24 01:47:47;;;;;;;18.57;16.03;;;9.10;79.00;;;7.88;76.05;96123.78;5020327;28;20999;-81
2022/04/24 01:50:14;;;;;;;21.70;16.10;;;9.10;79.10;;;7.87;76.11;96118.63;5023297;28;20493;-80
2022/04/24 01:52:41;;;;;;;16.00;14.47;;;9.10;79.30;;;7.87;76.61;96118.63;5028871;28;20867;-78
2022/04/24 01:55:10;;;;;;;18.53;16.60;;;9.10;79.70;;;7.89;76.45;96116.53;5019383;28;20513;-78
2022/04/24 01:57:36;;;;;;;19.17;17.17;;;9.10;79.80;;;7.92;76.66;96102.59;5028014;28;20462;-82
2022/04/24 02:00:05;;;;;;;18.30;16.50;;;9.10;79.80;;;7.92;76.68;96111.47;5020395;28;20448;-81
2022/04/24 02:02:31;;;;;;;18.20;16.40;;;9.20;80.00;;;8.00;76.55;96101.38;5026469;28;21000;-82
2022/04/24 02:04:58;;;;;;;18.27;16.47;;;9.20;80.00;;;8.10;75.96;96093.44;5024056;28;20453;-81
2022/04/24 02:07:28;;;;;;;18.30;16.40;;;9.30;79.80;;;8.10;75.85;96090.75;5027722;28;20573;-80
2022/04/24 02:09:55;;;;;;;17.93;16.23;;;9.30;79.80;;;8.18;75.64;96087.66;5028895;28;20531;-80
2022/04/24 02:12:23;;;;;;;17.00;15.50;;;9.40;79.60;;;8.14;75.88;96073.06;5047114;28;20456;-81
2022/04/24 02:14:50;;;;;;;18.50;16.40;;;9.40;79.70;;;8.23;75.88;96074.25;5023991;28;20454;-81
2022/04/24 02:17:17;;;;;;;18.63;16.50;;;9.50;79.60;;;8.23;75.49;96060.81;5026627;28;20573;-82
2022/04/24 02:19:44;;;;;;;19.73;17.77;;;9.50;79.50;;;8.25;75.54;96057.06;5044364;28;20500;-81
2022/04/24 02:22:11;;;;;;;18.20;16.37;;;9.50;79.30;;;8.35;75.26;96055.34;5026718;28;20969;-80
2022/04/24 02:24:39;;;;;;;21.67;17.93;;;9.60;79.40;;;8.30;75.55;96044.50;5021064;28;20458;-81
2022/04/24 02:27:06;;;;;;;21.17;17.40;;;9.60;79.30;;;8.36;75.54;96056.13;5043983;28;20562;-80
2022/04/24 02:29:34;;;;;;;19.83;16.20;;;9.60;79.30;;;8.45;74.94;96051.13;5029125;28;20470;-83
2022/04/24 02:32:01;;;;;;;20.03;17.90;;;9.60;79.20;;;8.46;74.41;96061.66;5029884;28;20537;-82
2022/04/24 02:34:28;;;;;;;19.90;17.33;;;9.70;79.00;;;8.47;74.88;96062.47;5034315;28;20490;-82
2022/04/24 02:36:55;;;;;;;19.90;17.67;;;9.70;79.10;;;8.35;74.50;96016.84;5022781;28;20513;-83
2022/04/24 02:39:23;;;;;;;18.57;16.57;;;9.70;79.00;;;8.52;74.62;96069.81;5025962;28;20465;-82
2022/04/24 02:41:50;;;;;;;17.30;15.50;;;9.70;78.80;;;8.58;74.64;96055.38;5046576;28;20446;-83
2022/04/24 02:44:17;;;;;;;20.27;16.87;;;9.80;79.10;;;8.59;74.41;96059.69;5022460;28;20551;-83
2022/04/24 02:46:45;;;;;;;18.27;16.43;;;9.80;78.90;;;8.49;74.72;96061.16;5024736;28;20489;-82
2022/04/24 02:49:12;;;;;;;19.60;17.50;;;9.70;78.90;;;8.17;74.85;96012.56;5026048;28;20497;-82
2022/04/24 02:51:40;;;;;;;19.57;17.57;;;9.70;79.00;;;8.52;74.62;96075.19;5027606;28;20461;-82
2022/04/24 02:54:06;;;;;;;19.50;17.40;;;9.70;79.00;;;8.54;75.17;96070.38;5024969;28;20837;-82
2022/04/24 02:56:34;;;;;;;18.97;16.97;;;9.70;79.20;;;8.48;74.82;96064.09;5023393;28;20561;-83
2022/04/24 02:59:01;;;;;;;19.23;17.23;;;9.70;79.20;;;8.49;75.34;96069.22;5022174;28;20541;-82
2022/04/24 03:01:27;;;;;;;19.87;17.80;;;9.70;79.30;;;8.40;74.83;96067.22;5021641;28;20504;-80
2022/04/24 03:03:57;;;;;;;21.50;18.67;;;9.70;79.40;;;8.35;76.01;96065.28;5024733;28;20513;-82
2022/04/24 03:06:26;;;;;;;20.97;18.77;;;9.60;79.60;;;8.34;75.79;96061.78;5021854;28;20544;-81
2022/04/24 03:08:53;;;;;;;21.67;19.40;;;9.60;79.70;;;8.34;75.76;96063.66;5023829;28;20480;-81
2022/04/24 03:11:21;;;;;;;20.17;18.20;;;9.60;79.90;;;8.08;75.77;96013.00;5024942;28;20568;-82
2022/04/24 03:13:48;;;;;;;22.40;18.93;;;9.60;80.00;;;8.22;75.73;96034.97;5028198;28;20465;-82
2022/04/24 03:16:15;;;;;;;20.63;18.13;;;9.60;80.10;;;8.39;75.62;96046.75;5027479;28;20446;-83
2022/04/24 03:18:42;;;;;;;19.77;17.77;;;9.60;80.00;;;8.35;75.60;96046.44;5034878;28;20561;-80
2022/04/24 03:21:11;;;;;;;20.50;18.30;;;9.60;80.10;;;8.41;75.60;96048.13;5023836;28;20554;-82
2022/04/24 03:23:39;;;;;;;19.90;17.40;;;9.60;80.10;;;8.10;76.02;95999.28;5021772;28;20450;-83
2022/04/24 03:26:06;;;;;;;20.40;18.20;;;9.60;80.20;;;8.35;76.23;96046.44;5023904;28;20540;-82
2022/04/24 03:28:33;;;;;;;21.57;19.10;;;9.60;80.30;;;8.30;76.01;96032.94;5028879;28;20522;-82
2022/04/24 03:31:00;;;;;;;19.90;17.80;;;9.60;80.50;;;8.35;76.27;96049.13;5029732;28;20960;-82
2022/04/24 03:33:27;;;;;;;20.63;17.50;;;9.60;80.60;;;8.39;76.09;96047.56;5026499;28;20934;-83
2022/04/24 03:35:54;;;;;;;20.80;18.03;;;9.60;80.50;;;8.37;76.36;96052.38;5023925;28;20472;-83
2022/04/24 03:38:23;;;;;;;19.97;17.97;;;9.60;80.70;;;8.41;76.14;96050.81;5043819;28;20441;-82
2022/04/24 03:40:50;;;;;;;20.20;17.87;;;9.60;80.60;;;8.25;76.37;96038.22;5018405;28;20546;-80
2022/04/24 03:43:17;;;;;;;20.97;18.77;;;9.60;80.60;;;8.36;75.91;96056.97;5047126;28;20448;-81
2022/04/24 03:45:45;;;;;;;21.03;18.70;;;9.60;80.50;;;8.36;76.22;96051.59;5025567;28;20930;-82
2022/04/24 03:48:11;;;;;;;21.00;18.60;;;9.60;80.60;;;8.34;76.27;96045.63;5031164;28;20857;-82
2022/04/24 03:50:38;;;;;;;20.03;17.90;;;9.60;80.50;;;7.81;75.70;95969.91;5026176;28;20470;-83
2022/04/24 03:53:06;;;;;;;20.67;18.47;;;9.60;80.50;;;8.30;75.96;96062.53;5032504;28;20540;-81
2022/04/24 03:55:34;;;;;;;20.63;18.53;;;9.60;80.50;;;8.43;76.02;96094.47;5025319;28;20478;-81
2022/04/24 03:58:01;;;;;;;20.33;17.97;;;9.60;80.70;;;8.53;75.86;96092.97;5028978;28;20544;-81
2022/04/24 04:00:28;;;;;;;20.30;18.07;;;9.70;80.80;;;8.53;75.61;96087.59;5027394;28;20512;-83
2022/04/24 04:02:55;;;;;;;20.03;17.87;;;9.70;80.50;;;8.49;75.95;96096.13;5027030;28;20492;-83
2022/04/24 04:05:22;;;;;;;20.47;18.27;;;9.70;80.30;;;8.09;75.93;96043.41;5029661;28;20528;-83
2022/04/24 04:07:49;;;;;;;21.60;18.73;;;9.70;80.50;;;8.56;75.79;96098.69;5032854;28;20543;-84
2022/04/24 04:10:16;;;;;;;19.97;17.80;;;9.80;80.40;;;8.49;76.13;96104.22;5034228;28;20567;-83
2022/04/24 04:12:45;;;;;;;19.47;17.50;;;9.70;80.40;;;8.42;76.45;96092.00;5027964;28;20812;-81
2022/04/24 04:15:12;;;;;;;20.43;18.30;;;9.70;80.60;;;8.20;76.01;96065.91;5023010;28;20541;-83
2022/04/24 04:17:39;;;;;;;23.70;19.00;;;9.70;80.60;;;8.50;75.82;96111.25;5028729;28;20554;-83
2022/04/24 04:20:11;;;;;;;21.17;18.67;;;9.80;80.50;;;8.62;75.82;96111.13;5028573;28;20549;-82
2022/04/24 04:22:48;;;;;;;21.53;18.50;;;9.80;80.40;;;8.63;75.43;96103.88;5048224;28;20475;-82
2022/04/24 04:25:15;;;;;;;20.93;18.73;;;9.80;80.10;;;8.66;75.44;96113.34;5024054;28;20450;-82
2022/04/24 04:27:43;;;;;;;20.40;18.30;;;9.90;80.10;;;8.56;74.91;96109.44;5030784;28;20461;-83
2022/04/24 04:30:11;;;;;;;21.70;18.70;;;9.90;80.30;;;8.57;75.57;96110.25;5022500;28;20512;-83
2022/04/24 04:32:38;;;;;;;21.53;18.67;;;9.80;80.60;;;8.69;75.90;96113.66;5023700;28;20551;-83
2022/04/24 04:35:09;;;;;;;20.47;18.37;;;9.90;80.60;;;8.67;76.15;96113.09;5020553;28;20476;-83
2022/04/24 04:37:36;;;;;;;20.80;18.47;;;9.90;80.80;;;8.68;75.94;96111.22;5025305;28;20532;-83
2022/04/24 04:40:04;;;;;;;21.90;18.47;;;9.90;80.80;;;8.59;76.85;96117.03;5029793;28;20472;-82
2022/04/24 04:42:31;;;;;;;22.13;19.70;;;9.80;81.40;;;8.43;78.93;96102.53;5029960;28;20508;-83
2022/04/24 04:45:00;;;;;;;22.20;19.63;;;9.70;83.80;;;8.35;80.86;96105.63;5024351;28;20461;-82
2022/04/24 04:47:27;;;;;;;25.03;21.03;;;9.60;86.70;;;8.20;82.75;96096.28;5026695;28;20451;-82
2022/04/24 04:49:54;;;;;;;25.50;22.33;;;9.50;90.00;;;8.07;84.20;96105.53;5023013;28;20474;-83
2022/04/24 04:52:22;;;;;;;25.97;21.87;;;9.30;91.20;;;8.06;84.03;96128.09;5027225;28;20517;-84
2022/04/24 04:54:49;;;;;;;26.63;22.57;;;9.30;91.50;;;8.04;86.43;96140.16;5028502;28;20450;-80
2022/04/24 04:57:17;;;;;;;26.27;23.10;;;9.20;93.90;;;8.02;87.83;96147.66;5025210;28;20631;-79
2022/04/24 04:59:44;;;;;;;28.60;23.67;;;9.30;95.70;;;8.07;89.17;96145.03;5027327;28;20474;-79
2022/04/24 05:02:13;;;;;;;26.23;23.37;;;9.30;99.40;;;7.37;88.33;96041.28;5034020;28;20857;-77
2022/04/24 05:04:43;;;;;;;26.80;23.03;;;9.30;97.60;;;8.22;88.61;96161.41;5022892;28;20569;-78
2022/04/24 05:07:11;;;;;;;28.27;24.07;;;9.40;97.80;;;7.84;89.99;96125.34;5023571;28;20448;-78
2022/04/24 05:09:38;;;;;;;27.50;22.87;;;9.40;99.60;;;8.23;89.79;96173.00;5031726;28;20545;-79
2022/04/24 05:12:07;;;;;;;28.40;23.27;;;9.40;99.80;;;8.22;88.78;96174.88;5023784;28;20813;-80
2022/04/24 05:14:37;;;;;;;28.23;25.10;;;9.40;98.10;;;8.27;88.95;96170.66;5023689;28;20794;-84
2022/04/24 05:17:05;;;;;;;29.47;24.50;;;9.40;99.00;;;8.16;90.07;96138.19;5017394;28;21104;-82
2022/04/24 05:19:33;;;;;;;28.27;24.03;;;9.40;99.90;;;8.50;89.54;96170.47;5020221;28;20454;-82
2022/04/24 05:22:00;;;;;;;26.73;23.87;;;9.60;99.90;;;8.50;89.42;96165.09;5021628;28;20450;-82
2022/04/24 05:24:27;;;;;;;29.57;25.00;;;9.60;99.70;;;8.72;88.60;96167.00;5022610;28;20473;-84
2022/04/24 05:26:55;;;;;;;27.90;24.40;;;9.70;99.90;;;8.87;88.73;96141.31;5023094;28;20450;-85
2022/04/24 05:29:23;;;;;;;27.93;24.20;;;9.90;99.90;;;8.64;89.77;96159.34;5020905;28;20462;-85
2022/04/24 05:31:50;;;;;;;29.57;24.67;;;9.80;99.90;;;8.73;90.46;96147.09;5029986;28;20486;-82
2022/04/24 05:34:17;;;;;;;27.10;24.13;;;9.80;99.90;;;9.03;87.38;96170.09;5031397;28;20464;-86
2022/04/24 05:36:45;;;;;;;26.13;23.10;;;10.00;97.10;;;8.73;89.76;96163.25;5022158;28;20540;-83
2022/04/24 05:39:12;;;;;;;29.60;25.30;;;9.90;99.00;;;8.65;91.67;96160.97;5018123;28;20490;-83
2022/04/24 05:41:39;;;;;;;26.77;24.00;;;9.80;99.90;;;8.87;90.72;96155.63;5019978;28;21037;-88
2022/04/24 05:44:06;;;;;;;26.53;23.67;;;9.90;99.90;;;8.69;89.31;96161.31;5017731;28;21287;-87
2022/04/24 05:46:34;;;;;;;30.93;26.07;;;9.80;99.60;;;8.65;90.03;96171.75;5041297;28;21114;-85
2022/04/24 05:49:02;;;;;;;24.60;21.90;;;9.80;99.90;;;8.55;87.43;96150.06;5021517;28;20786;-85
2022/04/24 05:51:29;;;;;;;26.23;23.53;;;9.80;97.10;;;8.67;87.90;96153.47;5021619;28;20485;-85
2022/04/24 05:53:58;;;;;;;26.33;23.53;;;9.80;97.70;;;8.66;88.86;96167.19;5019308;28;21018;-79
2022/04/24 05:56:24;;;;;;;26.50;23.63;;;9.80;98.20;;;8.53;90.13;96162.97;5020417;28;20487;-77
2022/04/24 05:58:52;;;;;;;27.10;24.17;;;9.70;99.90;;;8.55;90.49;96171.59;5024894;28;20457;-81
2022/04/24 06:01:19;;;;;;;26.87;24.10;;;9.70;99.90;;;8.55;90.00;96167.03;5025763;28;20459;-77
2022/04/24 06:03:47;;;;;;;30.50;25.63;;;9.70;99.90;;;8.30;90.35;96164.78;5025947;28;20451;-79
2022/04/24 06:06:16;;;;;;;29.57;26.10;;;9.60;99.90;;;8.44;91.21;96174.13;5019630;28;20461;-74
2022/04/24 06:08:43;;;;;;;28.30;24.17;;;9.60;99.90;;;8.32;92.30;96160.75;5027477;28;20966;-81
2022/04/24 06:11:12;;;;;;;29.40;25.17;;;9.50;99.90;;;8.48;91.63;96169.88;5022866;28;20481;-76
2022/04/24 06:13:39;;;;;;;28.73;24.20;;;9.50;99.90;;;8.35;91.16;96151.38;5024745;28;20559;-84
2022/04/24 06:16:06;;;;;;;28.23;25.00;;;9.60;99.90;;;8.46;91.36;96169.31;5019790;28;20488;-70
2022/04/24 06:18:33;;;;;;;30.07;25.00;;;9.60;99.90;;;8.46;92.31;96172.00;5025817;28;20461;-71
2022/04/24 06:21:00;;;;;;;32.57;26.33;;;9.60;99.90;;;8.44;92.38;96173.31;5024517;28;20946;-71
2022/04/24 06:23:28;;;;;;;33.57;27.07;;;9.60;99.90;;;8.46;92.33;96174.69;5021096;28;20472;-71
2022/04/24 06:25:57;;;;;;;32.23;26.63;;;9.60;99.90;;;8.36;92.78;96167.28;5021103;28;20474;-71
2022/04/24 06:28:25;;;;;;;28.93;25.17;;;9.60;99.90;;;8.47;94.30;96170.09;5022662;28;20461;-70
2022/04/24 06:30:52;;;;;;;31.33;27.93;;;9.60;99.90;;;8.47;94.19;96181.72;5020914;28;20487;-70
2022/04/24 06:33:19;;;;;;;33.33;27.93;;;9.50;99.90;;;8.41;94.07;96176.50;5025601;28;20547;-71
2022/04/24 06:35:46;;;;;;;33.10;27.87;;;9.60;99.90;;;8.44;93.67;96176.81;5021193;28;20468;-71
2022/04/24 06:38:13;;;;;;;29.90;26.07;;;9.60;99.90;;;8.37;93.66;96176.16;5022275;28;20466;-71
2022/04/24 06:40:40;;;;;;;30.30;26.10;;;9.50;99.90;;;8.44;94.82;96182.22;5025239;28;20516;-72
2022/04/24 06:43:08;;;;;;;29.70;24.57;;;9.50;99.90;;;8.81;92.90;96180.03;5024862;28;20476;-71
2022/04/24 06:45:39;;;;;;;30.40;24.53;;;9.70;99.90;;;8.83;93.25;96184.13;5023016;28;20554;-72
2022/04/24 06:48:09;;;;;;;29.83;25.60;;;9.90;99.90;;;8.96;93.24;96187.50;5022979;28;20744;-72
2022/04/24 06:50:38;;;;;;;31.20;27.27;;;10.00;99.90;;;9.02;92.50;96187.31;5021278;28;20539;-72
2022/04/24 06:53:08;;;;;;;28.03;24.93;;;10.10;99.90;;;8.95;92.02;96196.63;5020976;28;20930;-73
2022/04/24 06:55:38;;;;;;;28.83;25.80;;;10.10;99.90;;;8.81;92.49;96212.34;5016632;28;20473;-71
2022/04/24 06:58:06;;;;;;;29.20;26.00;;;10.00;99.90;;;8.57;93.03;96209.84;5017433;28;20583;-72
2022/04/24 07:00:38;;;;;;;29.33;24.90;;;9.90;99.90;;;8.76;92.96;96226.53;5022298;28;20471;-72
2022/04/24 07:03:10;;;;;;;33.60;27.20;;;9.90;99.90;;;8.73;93.49;96237.81;5021088;28;20541;-71
2022/04/24 07:05:38;;;;;;;33.87;27.57;;;9.90;99.90;;;8.27;94.35;96216.38;5027950;28;20453;-72
2022/04/24 07:08:05;;;;;;;33.50;27.40;;;9.70;99.90;;;8.33;95.31;96234.22;5019826;28;20460;-72
2022/04/24 07:10:32;;;;;;;32.03;27.97;;;9.60;99.90;;;8.36;95.97;96250.72;5021267;28;20498;-72
2022/04/24 07:13:00;;;;;;;35.67;28.80;;;9.60;99.90;;;8.34;97.19;96252.00;5024368;28;21174;-71
2022/04/24 07:15:32;;;;;;;35.00;30.43;;;9.50;99.90;;;8.23;96.93;96259.09;5032797;28;20528;-72
2022/04/24 07:18:00;;;;;;;33.53;28.67;;;9.50;99.90;;;8.27;97.08;96267.50;5039511;28;20894;-71
2022/04/24 07:20:29;;;;;;;34.40;29.07;;;9.50;99.90;;;7.83;97.17;96201.69;5020214;28;20957;-71
2022/04/24 07:22:58;;;;;;;40.23;30.03;;;9.40;99.90;;;8.19;97.20;96274.09;5018964;28;20469;-72
2022/04/24 07:25:26;;;;;;;37.73;29.70;;;9.40;99.90;;;8.15;97.15;96276.47;5016160;28;20458;-72
2022/04/24 07:27:54;;;;;;;35.13;29.10;;;9.40;99.90;;;8.03;98.29;96264.94;5025012;28;20453;-73
2022/04/24 07:30:22;;;;;;;38.87;30.43;;;9.30;99.90;;;8.12;98.53;96282.31;5020652;28;20589;-73
2022/04/24 07:32:51;;;;;;;39.47;30.87;;;9.30;99.90;;;8.26;99.36;96282.81;5039658;28;20520;-73
2022/04/24 07:35:22;;;;;;;40.33;32.70;;;9.40;99.90;;;8.25;99.69;96283.06;5017651;28;20555;-76
2022/04/24 07:37:49;;;;;;;42.20;33.00;;;9.40;99.90;;;8.03;99.30;96281.88;5020721;28;20474;-74
2022/04/24 07:40:19;;;;;;;41.93;30.73;;;9.40;99.90;;;8.07;99.28;96290.28;5019556;28;20462;-76
2022/04/24 07:42:49;;;;;;;33.73;28.60;;;9.30;99.90;;;7.97;99.18;96303.56;5035626;28;20461;-82
2022/04/24 07:45:22;;;;;;;38.30;31.47;;;9.20;99.90;;;8.00;99.05;96303.09;5020753;28;20548;-81
2022/04/24 07:47:50;;;;;;;29.67;23.87;;;9.20;99.90;;;7.31;98.18;96235.66;5020425;28;20453;-80
2022/04/24 07:50:21;;;;;;;24.70;22.20;;;9.10;99.90;;;7.64;97.13;96304.00;5020990;28;20468;-80
2022/04/24 07:52:50;;;;;;;18.47;16.57;;;9.00;99.90;;;7.55;95.62;96318.91;5022086;28;20465;-82
2022/04/24 07:55:19;;;;;;;16.90;14.47;;;8.90;99.90;;;7.49;95.03;96323.34;5019622;28;20479;-80
2022/04/24 07:57:47;;;;;;;15.30;13.60;;;8.80;99.90;;;7.57;94.33;96327.53;5027717;28;20453;-78
2022/04/24 08:00:16;;;;;;;11.17;8.20;;;8.80;99.90;;;7.27;90.94;96325.84;5026211;28;20447;-78
2022/04/24 08:02:53;;;;;;;7.20;6.50;;;8.70;97.60;;;7.20;90.45;96347.44;5028146;28;20834;-81
2022/04/24 08:05:26;;;;;;;6.33;5.73;;;8.50;97.80;;;7.01;92.03;96344.06;5025846;28;20458;-80
2022/04/24 08:07:55;;;;;;;7.90;6.00;;;8.40;99.10;;;7.03;91.50;96351.91;5024683;28;20542;-79
2022/04/24 08:10:24;;;;;;;7.27;6.50;;;8.40;99.40;;;7.16;91.41;96358.91;5019219;28;21056;-78
2022/04/24 08:12:52;;;;;;;6.97;6.27;;;8.40;99.60;;;7.06;92.72;96354.13;5019163;28;20458;-79
2022/04/24 08:15:20;;;;;;;6.37;5.17;;;8.40;99.90;;;6.91;92.03;96306.25;5025691;28;20580;-80
2022/04/24 08:17:47;;;;;;;6.07;5.37;;;8.50;99.90;;;7.36;91.26;96378.16;5042845;28;20457;-81
2022/04/24 08:20:16;;;;;;;5.10;4.60;;;8.50;99.90;;;7.30;91.74;96378.28;5028284;28;20496;-79
2022/04/24 08:22:46;;;;;;;5.87;5.20;;;8.50;99.90;;;7.21;91.90;96369.78;5024544;28;20461;-82
2022/04/24 08:25:17;;;;;;;5.03;4.27;;;8.50;99.90;;;7.40;92.36;96372.31;5023163;28;20466;-78
2022/04/24 08:27:46;;;;;;;6.63;4.70;;;8.50;99.90;;;7.32;91.84;96368.94;5032086;28;20536;-78
2022/04/24 08:30:14;;;;;;;4.27;3.60;;;8.60;99.90;;;7.48;89.43;96380.00;5024897;28;20533;-80
2022/04/24 08:32:43;;;;;;;5.50;3.20;;;8.60;97.90;;;7.30;88.79;96352.22;5027271;28;20569;-81
2022/04/24 08:35:12;;;;;;;3.50;3.20;;;8.60;95.80;;;7.43;88.87;96366.47;5036483;28;20472;-80
2022/04/24 08:37:40;;;;;;;4.03;2.97;;;8.60;96.70;;;7.29;89.17;96345.22;5031621;28;20602;-81
2022/04/24 08:40:12;;;;;;;3.30;2.17;;;8.60;96.50;;;7.30;89.10;96351.44;5047602;28;20528;-78
2022/04/24 08:42:40;;;;;;;2.30;2.10;;;8.60;97.20;;;7.26;90.17;96350.25;5038351;28;20496;-79
2022/04/24 08:45:12;;;;;;;2.10;1.90;;;8.50;98.50;;;7.25;89.57;96344.06;5022086;28;21012;-81
2022/04/24 08:47:41;;;;;;;2.80;2.60;;;8.50;97.10;;;6.97;90.30;96340.22;5021317;28;20457;-76
2022/04/24 08:50:17;;;;;;;2.50;2.30;;;8.30;98.20;;;7.05;91.08;96345.25;5026035;28;20453;-79
2022/04/24 08:52:45;;;;;;;2.67;2.33;;;8.30;99.90;;;7.14;91.25;96347.56;5022277;28;20484;-81
2022/04/24 08:55:13;;;;;;;1.97;1.83;;;8.40;99.90;;;7.41;89.15;96341.72;5020054;28;20519;-80
2022/04/24 08:57:40;;;;;;;2.33;2.10;;;8.50;97.90;;;7.59;88.32;96325.41;5024023;28;20500;-81
2022/04/24 09:00:09;;;;;;;1.90;1.80;;;8.70;97.00;;;7.36;89.70;96329.81;5018143;28;20549;-82
2022/04/24 09:02:36;;;;;;;3.30;3.00;;;8.60;97.70;;;7.34;89.44;96342.63;5023271;28;20488;-79
2022/04/24 09:05:06;;;;;;;2.60;1.97;;;8.70;96.00;;;7.42;89.74;96336.09;5023078;28;20463;-77
2022/04/24 09:07:35;;;;;;;1.80;1.70;;;8.70;97.30;;;7.52;89.09;96335.50;5037934;28;20513;-73
2022/04/24 09:10:07;;;;;;;1.73;1.60;;;8.70;96.30;;;7.73;87.36;96325.16;5019103;28;20500;-74
2022/04/24 09:12:37;;;;;;;1.80;1.70;;;8.80;94.80;;;7.87;85.37;96323.81;5019040;28;20473;-73
2022/04/24 09:15:06;;;;;;;2.03;1.60;;;9.00;93.30;;;8.15;86.56;96318.66;5016953;28;20438;-72
2022/04/24 09:17:35;;;;;;;1.80;1.10;;;9.20;94.30;;;8.04;83.71;96312.28;5020793;28;20452;-75
2022/04/24 09:20:16;;;;;;;1.00;0.80;;;9.20;91.10;;;7.76;83.43;96314.75;5024733;28;20473;-86
2022/04/24 09:22:43;;;;;;;1.00;0.90;;;9.20;90.80;;;7.93;85.31;96312.09;5015983;28;22300;-79
2022/04/24 09:25:12;;;;;;;0.80;0.70;;;9.10;92.80;;;7.77;83.04;96267.16;5037465;28;20449;-79
2022/04/24 09:27:42;;;;;;;1.20;0.90;;;9.20;90.80;;;8.17;83.76;96295.03;5025073;28;20449;-81
2022/04/24 09:30:14;;;;;;;1.80;1.37;;;9.30;91.70;;;8.49;81.99;96298.00;5026003;28;20463;-77
2022/04/24 09:32:50;;;;;;;1.27;1.17;;;9.60;90.90;;;8.63;81.78;96295.03;5026625;28;20508;-78
2022/04/24 09:35:26;;;;;;;1.00;0.90;;;9.70;90.10;;;9.39;79.58;96282.88;5039317;28;20444;-80
2022/04/24 09:37:53;;;;;;;1.10;0.67;;;10.30;87.20;;;9.33;77.82;96292.81;5028992;28;20545;-81
2022/04/24 09:40:20;;;;;;;1.10;1.00;;;10.60;83.60;;;9.51;76.12;96285.47;5027748;28;21069;-76
2022/04/24 09:45:43;;;;;;;1.10;1.00;;;10.90;83.00;;;9.78;75.14;96292.75;5037610;28;20799;-72
2022/04/24 09:48:15;;;;;;;1.23;0.50;;;11.00;81.30;;;9.61;72.49;96250.50;5027663;28;20471;-77
2022/04/24 09:50:42;;;;;;;3.03;0.70;;;11.10;78.90;;;9.40;74.27;96272.91;5034668;28;20481;-77
2022/04/24 09:53:15;;;;;;;1.40;0.60;;;10.80;79.30;;;9.36;75.15;96240.25;5025384;28;20471;-77
2022/04/24 09:55:49;;;;;;;1.10;0.63;;;10.80;80.10;;;9.96;73.96;96290.81;5020814;28;20964;-75
2022/04/24 09:58:18;;;;;;;1.27;0.70;;;11.10;80.10;;;10.05;74.34;96262.31;5029864;28;20523;-80
2022/04/24 10:00:45;;;;;;;0.70;0.70;;;11.30;80.10;;;10.31;71.80;96254.44;5026388;28;20953;-76
2022/04/24 10:03:18;;;;;;;0.90;0.60;;;11.60;79.20;;;9.98;73.37;96230.13;5029733;28;20450;-77
2022/04/24 10:05:49;;;;;;;0.87;0.83;;;11.60;79.10;;;10.96;70.85;96278.72;5028664;28;20540;-78
2022/04/24 10:08:19;;;;;;;1.20;0.70;;;11.90;78.50;;;10.96;68.06;96240.88;5031104;28;20460;-78
2022/04/24 10:13:34;;;;;;;0.90;0.90;;;12.30;77.70;;;10.47;73.10;96275.13;5047359;28;20552;-79
2022/04/24 10:16:24;;;;;;;1.77;1.10;;;12.00;78.40;;;11.14;68.82;96290.16;5030809;28;20454;-76
2022/04/24 10:18:57;;;;;;;1.03;0.93;;;12.20;76.20;;;11.87;68.07;96289.41;5042968;28;20462;-80
2022/04/24 10:21:54;;;;;;;1.70;0.80;;;12.70;77.10;;;12.58;66.38;96251.09;5027619;28;20459;-79
2022/04/24 10:24:21;;;;;;;2.10;1.20;;;13.40;77.40;;;12.09;66.52;96295.72;5029368;28;20478;-78
2022/04/24 10:26:55;;;;;;;1.17;1.07;;;13.30;74.80;;;11.68;68.76;96302.63;5035270;28;20463;-76
2022/04/24 10:29:24;;;;;;;1.20;1.10;;;13.10;75.80;;;11.51;70.54;96307.41;5034038;28;20530;-75
2022/04/24 10:31:51;;;;;;;1.47;1.37;;;13.00;76.60;;;11.86;67.28;96312.13;5031212;28;20460;-81